Time;durP1;ratioP1;P1;durP2;ratioP2;P2;SDS_P1;SDS_P2;PMS_P1;PMS_P2;Temp;Humidity;BMP_temperature;BMP_pressure;BME280_temperature;BME280_humidity;BME280_pressure;Samples;Min_cycle;Max_cycle;Signal;HPM_P1;HPM_P2
2022/06/26 00:02:26;;;;;;;3.42;2.42;;;;;;;21.69;66.22;99442.09;12212098;19;20274;-78
2022/06/26 00:06:27;;;;;;;4.25;2.35;;;;;;;21.52;67.94;99437.34;12181648;19;20429;-78
2022/06/26 00:10:29;;;;;;;3.53;2.33;;;;;;;21.33;68.41;99454.47;12214043;19;20030;-79
2022/06/26 00:14:30;;;;;;;3.53;2.17;;;;;;;21.23;68.30;99460.41;12208128;19;20027;-78
2022/06/26 00:18:32;;;;;;;2.75;1.80;;;;;;;21.07;69.34;99454.47;12188406;19;20011;-78
2022/06/26 00:22:34;;;;;;;6.72;1.88;;;;;;;20.91;70.30;99451.31;12207542;19;20019;-79
2022/06/26 00:26:35;;;;;;;6.82;2.00;;;;;;;20.80;70.99;99452.78;12209356;19;20037;-78
2022/06/26 00:30:37;;;;;;;2.90;1.30;;;;;;;20.76;71.12;99455.41;12187861;19;20054;-78
2022/06/26 00:34:39;;;;;;;2.95;1.70;;;;;;;20.78;71.23;99464.31;12203586;19;20014;-79
2022/06/26 00:38:40;;;;;;;2.33;1.70;;;;;;;20.77;71.33;99465.47;12195422;19;20020;-79
2022/06/26 00:42:42;;;;;;;3.28;1.90;;;;;;;20.73;71.96;99453.25;12175854;19;20069;-78
2022/06/26 00:46:44;;;;;;;3.03;1.60;;;;;;;20.65;72.33;99457.69;12197146;19;20444;-77
2022/06/26 00:50:47;;;;;;;2.83;1.73;;;;;;;20.61;73.30;99462.31;12203172;19;20251;-79
2022/06/26 00:54:50;;;;;;;5.15;2.03;;;;;;;20.56;73.48;99456.84;12183766;19;20010;-78
2022/06/26 00:58:52;;;;;;;4.55;1.77;;;;;;;20.51;74.15;99473.75;12196657;19;20402;-79
2022/06/26 01:02:53;;;;;;;4.10;1.45;;;;;;;20.47;74.36;99464.38;12199370;19;20110;-78
2022/06/26 01:06:55;;;;;;;2.03;1.33;;;;;;;20.42;74.56;99476.53;12179112;19;20081;-79
2022/06/26 01:10:57;;;;;;;2.20;1.33;;;;;;;20.38;75.98;99481.13;12199796;19;20003;-79
2022/06/26 01:15:00;;;;;;;4.13;1.20;;;;;;;20.35;75.77;99476.19;12206652;19;19998;-79
2022/06/26 01:19:05;;;;;;;6.45;1.70;;;;;;;20.33;76.63;99472.03;12172590;19;20250;-77
2022/06/26 01:23:08;;;;;;;2.50;1.67;;;;;;;20.27;76.92;99472.19;12202557;19;20010;-78
2022/06/26 01:27:10;;;;;;;3.63;1.67;;;;;;;20.23;77.19;99476.78;12184114;19;20018;-78
2022/06/26 01:31:13;;;;;;;2.38;1.35;;;;;;;20.17;77.61;99485.66;12197883;19;20018;-78
2022/06/26 01:35:14;;;;;;;4.53;1.75;;;;;;;20.13;78.06;99485.44;12204889;19;21012;-80
2022/06/26 01:39:26;;;;;;;3.70;1.58;;;;;;;20.12;78.15;99488.56;12182224;19;20030;-78
2022/06/26 01:43:31;;;;;;;9.80;1.87;;;;;;;20.07;78.73;99483.09;12197118;19;20002;-79
2022/06/26 01:47:32;;;;;;;5.03;1.65;;;;;;;20.06;79.38;99479.50;12211356;19;20006;-79
2022/06/26 01:51:35;;;;;;;;;;;;;;;20.02;79.69;99476.50;12183608;19;20066;-79
2022/06/26 01:55:37;;;;;;;2.10;1.55;;;;;;;20.06;79.47;99470.28;12204225;19;19909;-78
2022/06/26 01:59:42;;;;;;;3.72;1.92;;;;;;;20.05;80.08;99480.66;12207822;19;20023;-79
2022/06/26 02:03:45;;;;;;;2.92;1.92;;;;;;;20.06;80.40;99492.66;12178507;19;20038;-80
2022/06/26 02:07:46;;;;;;;3.00;1.90;;;;;;;20.02;80.25;99490.50;12199693;19;20011;-78
2022/06/26 02:16:14;;;;;;;3.17;2.13;;;;;;;20.01;81.10;99519.59;12170899;19;20448;-79
2022/06/26 02:20:17;;;;;;;2.42;1.65;;;;;;;19.94;81.90;99516.44;12198464;19;20018;-79
2022/06/26 02:24:19;;;;;;;4.82;1.98;;;;;;;19.91;82.03;99517.06;12180867;19;20015;-78
2022/06/26 02:28:21;;;;;;;4.60;1.77;;;;;;;19.92;82.36;99513.13;12197720;19;20100;-77
2022/06/26 02:32:24;;;;;;;2.33;1.90;;;;;;;19.93;82.24;99505.56;12208398;19;20524;-78
2022/06/26 02:36:26;;;;;;;3.90;1.87;;;;;;;19.92;82.84;99504.72;12185229;19;20003;-80
2022/06/26 02:40:30;;;;;;;2.47;1.50;;;;;;;19.92;82.95;99501.13;12226900;19;19998;-79
2022/06/26 02:44:34;;;;;;;5.45;1.92;;;;;;;19.96;82.97;99502.16;12209683;19;20034;-79
2022/06/26 02:48:39;;;;;;;3.10;2.00;;;;;;;19.94;83.10;99499.66;12178382;19;20024;-79
2022/06/26 02:52:42;;;;;;;3.83;1.73;;;;;;;19.95;83.76;99495.72;12215397;19;20062;-80
2022/06/26 02:56:45;;;;;;;4.82;1.80;;;;;;;19.96;83.24;99494.59;12205184;19;20455;-81
2022/06/26 03:00:48;;;;;;;3.25;1.80;;;;;;;19.95;83.80;99487.31;12187274;19;20029;-79
2022/06/26 03:04:53;;;;;;;2.30;1.58;;;;;;;19.94;84.42;99482.06;12227772;19;20022;-78
2022/06/26 03:08:54;;;;;;;;;;;;;;;19.91;84.56;99479.91;12261886;19;20026;-81
2022/06/26 03:12:56;;;;;;;2.83;1.80;;;;;;;19.90;84.50;99469.84;12193327;19;19954;-80
2022/06/26 03:16:58;;;;;;;2.75;1.55;;;;;;;19.88;84.87;99461.78;12216446;19;20022;-81
2022/06/26 03:20:59;;;;;;;2.72;1.67;;;;;;;19.82;85.63;99457.47;12201686;19;20006;-80
2022/06/26 03:25:01;;;;;;;6.25;1.83;;;;;;;19.75;86.62;99452.34;12197633;19;20498;-80
2022/06/26 03:29:06;;;;;;;2.85;1.35;;;;;;;19.72;87.50;99444.59;12216036;19;20007;-80
2022/06/26 03:33:09;;;;;;;4.30;1.77;;;;;;;19.73;88.03;99445.44;12200975;19;20007;-80
2022/06/26 03:37:11;;;;;;;3.47;1.58;;;;;;;19.80;87.75;99451.38;12221709;19;20055;-81
2022/06/26 03:41:13;;;;;;;2.53;1.52;;;;;;;19.84;88.23;99463.59;12242875;19;20011;-77
2022/06/26 03:45:14;;;;;;;3.10;1.80;;;;;;;19.83;88.37;99477.88;12212906;19;20002;-76
2022/06/26 03:49:17;;;;;;;2.35;1.77;;;;;;;19.84;87.59;99497.16;12240341;19;20053;-77
2022/06/26 03:53:20;;;;;;;2.58;1.40;;;;;;;19.94;87.47;99504.44;12234938;19;20019;-80
2022/06/26 03:57:22;;;;;;;3.17;1.70;;;;;;;19.95;88.03;99517.25;12199252;19;20079;-79
2022/06/26 04:01:27;;;;;;;2.75;1.50;;;;;;;20.00;87.68;99523.53;12227710;19;20011;-78
2022/06/26 04:05:33;;;;;;;3.28;1.73;;;;;;;20.03;87.33;99519.28;12232925;19;20011;-79
2022/06/26 04:09:35;;;;;;;1.83;1.50;;;;;;;20.06;86.92;99515.03;12213372;19;20017;-79
2022/06/26 04:13:37;;;;;;;2.60;1.40;;;;;;;20.11;87.24;99526.06;12250927;19;20014;-77
2022/06/26 04:17:39;;;;;;;6.47;1.80;;;;;;;20.13;87.03;99519.00;12239216;19;20298;-78
2022/06/26 04:21:46;;;;;;;2.13;1.48;;;;;;;20.21;86.92;99532.22;12225423;19;20018;-76
2022/06/26 04:25:48;;;;;;;2.50;1.50;;;;;;;20.28;86.20;99534.56;12229704;19;20014;-78
2022/06/26 04:29:52;;;;;;;2.67;1.52;;;;;;;20.34;85.84;99538.88;12196001;19;20007;-77
2022/06/26 04:33:54;;;;;;;1.50;1.17;;;;;;;20.40;85.37;99531.97;12191752;19;20771;-78
2022/06/26 04:37:58;;;;;;;3.25;1.48;;;;;;;20.47;85.29;99537.13;12227952;19;20008;-78
2022/06/26 04:42:00;;;;;;;3.78;1.83;;;;;;;20.51;84.55;99542.91;12213335;19;20018;-79
2022/06/26 04:46:03;;;;;;;2.65;1.52;;;;;;;20.52;84.50;99550.16;12190919;19;20006;-78
2022/06/26 04:50:07;;;;;;;2.45;1.48;;;;;;;20.53;84.45;99551.84;12205056;19;20029;-80
2022/06/26 04:54:09;;;;;;;2.45;1.60;;;;;;;20.50;84.29;99553.28;12209249;19;20019;-78
2022/06/26 04:58:16;;;;;;;5.72;1.90;;;;;;;20.44;84.94;99551.78;12173840;19;20578;-78
2022/06/26 05:02:19;;;;;;;4.78;1.58;;;;;;;20.34;85.29;99552.84;12207164;19;20802;-78
2022/06/26 05:06:31;;;;;;;3.30;1.60;;;;;;;20.31;85.33;99549.88;12186123;19;20066;-80
2022/06/26 05:10:46;;;;;;;4.57;1.80;;;;;;;20.29;85.84;99549.41;12211791;19;20654;-80
2022/06/26 05:14:48;;;;;;;2.38;1.33;;;;;;;20.33;85.88;99554.00;12208865;19;20018;-79
2022/06/26 05:18:52;;;;;;;2.40;1.70;;;;;;;20.42;85.55;99538.09;12180301;19;20013;-78
2022/06/26 05:22:54;;;;;;;5.57;1.48;;;;;;;20.60;85.27;99530.63;12208484;19;20006;-78
2022/06/26 05:26:58;;;;;;;2.17;1.48;;;;;;;20.66;85.07;99548.91;12198354;19;20017;-78
2022/06/26 05:31:00;;;;;;;3.30;1.50;;;;;;;20.63;85.20;99559.94;12175979;19;20535;-80
2022/06/26 05:35:07;;;;;;;2.38;1.55;;;;;;;20.72;84.94;99555.19;12202706;19;20093;-80
2022/06/26 05:39:08;;;;;;;2.90;1.53;;;;;;;21.04;84.23;99547.56;12202172;19;20041;-79
2022/06/26 05:43:11;;;;;;;3.83;1.65;;;;;;;21.19;82.64;99554.69;12176504;19;20255;-79
2022/06/26 05:47:15;;;;;;;6.03;1.60;;;;;;;21.29;82.30;99573.97;12204397;19;20034;-79
2022/06/26 05:51:35;;;;;;;3.20;1.50;;;;;;;21.28;82.52;99589.16;12176584;19;20018;-80
2022/06/26 05:55:42;;;;;;;2.70;2.00;;;;;;;21.16;81.64;99586.97;12200773;19;20534;-79
2022/06/26 06:00:04;;;;;;;1.85;1.50;;;;;;;21.02;82.30;99592.69;12201734;19;20027;-79
2022/06/26 06:04:19;;;;;;;3.20;1.60;;;;;;;20.94;82.78;99605.53;12179185;19;20390;-79
2022/06/26 06:08:22;;;;;;;3.55;1.70;;;;;;;20.84;83.54;99614.22;12224426;19;20003;-77
2022/06/26 06:12:24;;;;;;;3.83;1.50;;;;;;;20.78;84.44;99632.31;12186349;19;20007;-81
2022/06/26 06:16:26;;;;;;;2.47;1.60;;;;;;;20.90;83.67;99628.91;12200544;19;19998;-78
2022/06/26 06:20:29;;;;;;;2.72;1.38;;;;;;;20.94;84.25;99630.75;12229982;19;20006;-80
2022/06/26 06:24:31;;;;;;;2.17;1.40;;;;;;;21.04;83.61;99612.00;12186776;19;20414;-80
2022/06/26 06:28:32;;;;;;;5.55;1.50;;;;;;;21.11;83.10;99601.94;12223451;19;20010;-79
2022/06/26 06:32:35;;;;;;;2.73;1.47;;;;;;;21.25;81.98;99609.41;12194277;19;20010;-79
2022/06/26 06:36:41;;;;;;;4.13;1.60;;;;;;;21.57;80.51;99630.63;12209808;19;20003;-77
2022/06/26 06:40:44;;;;;;;3.70;1.75;;;;;;;21.83;79.68;99641.84;12235476;19;20010;-79
2022/06/26 06:44:47;;;;;;;4.13;1.77;;;;;;;22.06;78.60;99632.09;12201754;19;20030;-81
2022/06/26 06:49:00;;;;;;;2.10;1.27;;;;;;;22.08;77.88;99645.81;12172882;19;20039;-80
2022/06/26 06:53:07;;;;;;;2.63;1.20;;;;;;;22.19;76.23;99658.41;12200947;19;20010;-80
2022/06/26 06:57:09;;;;;;;2.17;1.00;;;;;;;22.28;74.16;99664.81;12203287;19;20019;-80
2022/06/26 07:01:10;;;;;;;2.08;1.20;;;;;;;22.26;73.78;99664.31;12170590;19;20812;-80
2022/06/26 07:05:12;;;;;;;2.70;1.27;;;;;;;22.36;74.09;99673.56;12190090;19;20597;-80
2022/06/26 07:09:14;;;;;;;2.28;1.05;;;;;;;22.49;72.54;99664.97;12205187;19;20006;-81
2022/06/26 07:13:20;;;;;;;2.22;1.20;;;;;;;22.65;71.32;99676.47;12186227;19;20018;-82
2022/06/26 07:17:25;;;;;;;1.70;1.10;;;;;;;22.90;71.23;99671.13;12185445;19;20039;-81
2022/06/26 07:21:30;;;;;;;1.50;1.13;;;;;;;23.41;70.13;99677.72;12179475;19;20007;-82
2022/06/26 07:25:39;;;;;;;2.58;1.33;;;;;;;23.55;68.77;99678.28;12201790;19;20011;-81
2022/06/26 07:29:42;;;;;;;3.38;1.20;;;;;;;23.31;68.92;99684.53;12203265;19;20013;-82
2022/06/26 07:38:08;;;;;;;3.38;1.00;;;;;;;23.33;68.67;99681.41;12213495;19;20006;-82
2022/06/26 07:42:10;;;;;;;3.00;1.30;;;;;;;23.69;67.98;99696.91;12197940;19;20658;-82
2022/06/26 07:46:14;;;;;;;2.08;1.15;;;;;;;23.77;67.51;99684.81;12190284;19;20010;-81
2022/06/26 07:50:19;;;;;;;3.70;1.33;;;;;;;23.88;67.34;99688.84;12213030;19;20018;-81
2022/06/26 07:54:21;;;;;;;3.47;1.35;;;;;;;23.98;66.73;99682.03;12185896;19;20020;-79
2022/06/26 07:58:24;;;;;;;3.28;1.15;;;;;;;24.22;65.31;99687.78;12215523;19;20010;-80
2022/06/26 08:02:28;;;;;;;3.83;1.07;;;;;;;24.31;64.58;99687.72;12213106;19;20002;-82
2022/06/26 08:06:30;;;;;;;2.17;1.00;;;;;;;24.39;62.93;99688.78;12190852;19;20066;-80
2022/06/26 08:10:34;;;;;;;2.28;1.00;;;;;;;24.68;62.50;99685.06;12201342;19;20011;-81
2022/06/26 08:14:35;;;;;;;;;;;;;;;24.80;62.37;99693.53;12211001;19;20033;-81
2022/06/26 08:18:38;;;;;;;2.28;1.13;;;;;;;25.22;62.27;99682.13;12192350;19;20384;-80
2022/06/26 08:22:40;;;;;;;2.13;1.10;;;;;;;25.46;61.08;99690.63;12181531;19;20559;-79
2022/06/26 08:26:42;;;;;;;3.07;1.10;;;;;;;25.64;59.50;99693.16;12213879;19;20276;-81
2022/06/26 08:30:43;;;;;;;4.80;1.20;;;;;;;25.51;59.31;99689.53;12197110;19;20114;-82
2022/06/26 08:34:45;;;;;;;1.60;1.00;;;;;;;25.61;57.43;99699.53;12218769;19;20011;-81
2022/06/26 08:38:47;;;;;;;1.27;0.70;;;;;;;25.64;56.11;99701.63;12215026;19;20428;-80
2022/06/26 08:42:52;;;;;;;5.72;1.08;;;;;;;25.59;55.26;99704.72;12195678;19;20030;-80
2022/06/26 08:46:54;;;;;;;4.03;1.00;;;;;;;25.61;55.45;99696.69;12201780;19;20029;-81
2022/06/26 08:50:56;;;;;;;1.92;0.90;;;;;;;25.78;54.99;99702.09;12214417;19;20066;-81
2022/06/26 08:54:58;;;;;;;3.10;1.00;;;;;;;26.12;54.31;99691.50;12190240;19;20007;-79
2022/06/26 08:59:00;;;;;;;2.00;1.33;;;;;;;26.30;52.99;99680.72;12207780;19;20448;-81
2022/06/26 09:03:02;;;;;;;4.67;1.17;;;;;;;26.67;53.51;99675.75;12208079;19;19999;-81
2022/06/26 09:07:06;;;;;;;1.40;0.82;;;;;;;26.81;52.54;99681.78;12195423;19;20035;-80
2022/06/26 09:11:08;;;;;;;1.90;1.00;;;;;;;26.97;51.31;99684.63;12201426;19;20475;-81
2022/06/26 09:15:16;;;;;;;2.80;0.73;;;;;;;27.21;50.33;99683.66;12208570;19;20085;-81
2022/06/26 09:19:23;;;;;;;3.30;1.70;;;;;;;27.20;49.89;99676.38;12182129;19;20396;-80
2022/06/26 09:23:33;;;;;;;1.67;0.80;;;;;;;26.96;48.74;99668.06;12212646;19;20011;-84
2022/06/26 09:27:39;;;;;;;1.65;0.80;;;;;;;26.89;49.84;99667.84;12185910;19;20015;-83
2022/06/26 09:31:42;;;;;;;2.72;0.80;;;;;;;27.33;49.83;99654.47;12206341;19;20415;-82
2022/06/26 09:35:44;;;;;;;2.45;0.85;;;;;;;27.60;48.80;99655.50;12213740;19;20078;-81
2022/06/26 09:39:46;;;;;;;1.27;0.70;;;;;;;27.56;46.91;99659.47;12200719;19;20015;-82
2022/06/26 09:43:48;;;;;;;0.90;0.60;;;;;;;27.33;46.15;99648.81;12197972;19;20007;-83
2022/06/26 09:47:50;;;;;;;0.88;0.70;;;;;;;27.59;47.01;99653.88;12204332;19;20030;-82
2022/06/26 09:51:52;;;;;;;3.83;1.33;;;;;;;27.83;45.97;99652.03;12189451;19;20509;-82
2022/06/26 09:55:57;;;;;;;2.53;0.98;;;;;;;27.94;45.43;99662.41;12197631;19;20743;-81
2022/06/26 09:59:58;;;;;;;2.45;0.93;;;;;;;27.86;45.27;99663.44;12218788;19;20020;-82
2022/06/26 10:08:23;;;;;;;1.55;0.80;;;;;;;28.66;44.59;99671.63;12221921;19;20272;-82
2022/06/26 10:12:24;;;;;;;2.22;0.85;;;;;;;28.83;42.92;99671.13;12221384;19;20003;-81
2022/06/26 10:16:30;;;;;;;1.48;0.65;;;;;;;29.18;42.80;99676.66;12236460;19;20006;-82
2022/06/26 10:20:34;;;;;;;0.90;0.75;;;;;;;29.45;41.35;99671.03;12219366;19;20006;-82
2022/06/26 10:24:48;;;;;;;1.05;0.68;;;;;;;29.44;41.63;99670.19;12197229;19;20483;-86
2022/06/26 10:29:08;;;;;;;2.05;0.90;;;;;;;29.27;41.21;99677.22;12206788;19;20006;-82
2022/06/26 10:33:20;;;;;;;0.88;0.70;;;;;;;29.28;41.84;99678.03;12218276;19;20347;-83
2022/06/26 10:37:26;;;;;;;1.13;0.65;;;;;;;28.90;42.49;99665.59;12188774;19;20014;-84
2022/06/26 10:46:01;;;;;;;1.83;1.00;;;;;;;29.04;42.22;99656.56;12188152;19;20031;-83
2022/06/26 10:50:04;;;;;;;1.27;0.68;;;;;;;29.12;41.26;99654.66;12210813;19;20058;-84
2022/06/26 10:54:21;;;;;;;0.95;0.68;;;;;;;29.48;39.96;99639.88;12206109;19;20078;-81
2022/06/26 10:58:31;;;;;;;2.70;0.88;;;;;;;29.60;40.67;99646.50;12189633;19;20075;-81
2022/06/26 11:02:38;;;;;;;1.83;1.00;;;;;;;29.83;40.66;99650.13;12194672;19;20013;-81
2022/06/26 11:06:40;;;;;;;1.52;0.80;;;;;;;30.06;39.62;99652.06;12203107;19;20456;-81
2022/06/26 11:10:44;;;;;;;0.80;0.70;;;;;;;29.87;39.42;99633.97;12218605;19;20010;-82
2022/06/26 11:14:46;;;;;;;1.70;1.00;;;;;;;29.95;39.83;99637.72;12217174;19;20011;-82
2022/06/26 11:18:48;;;;;;;1.40;0.80;;;;;;;29.97;39.95;99638.97;12193329;19;20082;-80
2022/06/26 11:22:50;;;;;;;;;;;;;;;29.75;40.00;99642.72;12210308;19;20054;-79
2022/06/26 11:26:54;;;;;;;1.48;0.80;;;;;;;29.66;40.03;99647.88;12212158;19;19918;-79
2022/06/26 11:30:56;;;;;;;1.52;0.85;;;;;;;29.77;39.05;99642.34;12188228;19;20006;-81
2022/06/26 11:34:58;;;;;;;2.25;1.17;;;;;;;29.98;38.89;99631.25;12214689;19;20034;-82
2022/06/26 11:39:00;;;;;;;0.80;0.80;;;;;;;30.91;38.05;99623.03;12215025;19;20588;-82
2022/06/26 11:43:01;;;;;;;3.05;1.23;;;;;;;31.50;36.92;99621.94;12194192;19;20065;-80
2022/06/26 11:47:05;;;;;;;;;;;;;;;31.59;36.82;99617.91;12206072;19;20014;-81
2022/06/26 11:51:12;;;;;;;1.35;0.95;;;;;;;31.26;36.66;99623.38;12216705;19;19918;-80
2022/06/26 11:55:14;;;;;;;1.33;0.93;;;;;;;31.42;36.79;99622.28;12184289;19;20011;-81
2022/06/26 11:59:15;;;;;;;1.20;0.90;;;;;;;31.63;35.18;99605.34;12209330;19;20006;-80
2022/06/26 12:03:19;;;;;;;1.33;0.90;;;;;;;31.16;36.64;99618.38;12202155;19;20015;-81
2022/06/26 12:07:21;;;;;;;1.60;1.20;;;;;;;31.14;36.77;99608.59;12192154;19;20374;-81
2022/06/26 12:11:24;;;;;;;1.25;0.75;;;;;;;31.24;36.31;99614.41;12216212;19;20196;-80
2022/06/26 12:15:28;;;;;;;3.58;0.88;;;;;;;31.43;36.32;99621.06;12190750;19;20030;-79
2022/06/26 12:19:39;;;;;;;2.42;0.90;;;;;;;31.50;36.11;99621.09;12205812;19;20067;-81
2022/06/26 12:23:46;;;;;;;1.80;1.00;;;;;;;31.84;36.52;99620.94;12210065;19;20015;-80
2022/06/26 12:27:47;;;;;;;1.85;0.85;;;;;;;33.44;33.17;99623.41;12177828;19;20069;-82
2022/06/26 12:31:49;;;;;;;1.77;0.90;;;;;;;34.11;32.67;99617.97;12214974;19;20113;-79
2022/06/26 12:35:52;;;;;;;1.92;1.10;;;;;;;33.44;33.09;99611.97;12214343;19;20009;-80
2022/06/26 12:39:54;;;;;;;1.63;0.90;;;;;;;32.76;33.48;99611.13;12194422;19;20002;-82
2022/06/26 12:43:59;;;;;;;1.75;0.90;;;;;;;33.29;33.15;99604.66;12209887;19;20074;-83
2022/06/26 12:48:00;;;;;;;2.95;1.17;;;;;;;34.58;31.94;99607.97;12209658;19;20007;-81
2022/06/26 12:52:02;;;;;;;;;;;;;;;35.78;30.49;99612.31;12196081;19;20368;-83
2022/06/26 12:56:05;;;;;;;1.55;1.20;;;;;;;36.44;29.53;99602.50;12208239;19;19923;-84
2022/06/26 13:00:08;;;;;;;2.08;1.10;;;;;;;36.48;28.47;99606.16;12212969;19;20087;-83
2022/06/26 13:04:10;;;;;;;1.60;1.13;;;;;;;37.65;27.42;99601.84;12184955;19;20026;-81
2022/06/26 13:08:14;;;;;;;1.27;0.90;;;;;;;38.08;26.61;99601.84;12215038;19;20679;-81
2022/06/26 13:12:16;;;;;;;2.78;1.13;;;;;;;38.56;26.21;99603.28;12209663;19;20466;-81
2022/06/26 13:16:17;;;;;;;1.17;1.00;;;;;;;38.28;25.88;99607.56;12182563;19;20003;-84
2022/06/26 13:20:19;;;;;;;1.52;0.95;;;;;;;36.72;27.78;99602.13;12209892;19;20015;-83
2022/06/26 13:24:21;;;;;;;2.17;1.08;;;;;;;35.53;28.87;99598.22;12207360;19;20023;-81
2022/06/26 13:28:26;;;;;;;1.48;1.10;;;;;;;34.74;29.17;99603.78;12177514;19;20010;-85
2022/06/26 13:32:47;;;;;;;1.55;1.00;;;;;;;34.36;31.04;99592.97;12213826;19;20010;-80
2022/06/26 13:36:49;;;;;;;3.65;1.20;;;;;;;36.15;28.18;99579.97;12188474;19;20853;-81
2022/06/26 13:40:51;;;;;;;1.88;1.00;;;;;;;36.29;28.41;99578.94;12206691;19;20488;-82
2022/06/26 13:44:53;;;;;;;2.60;1.20;;;;;;;37.56;26.48;99580.22;12210164;19;20862;-86
2022/06/26 13:48:54;;;;;;;1.05;0.93;;;;;;;38.23;26.03;99570.69;12189045;19;20045;-81
2022/06/26 13:52:59;;;;;;;1.30;1.20;;;;;;;36.99;26.96;99563.97;12242668;19;20036;-83
2022/06/26 13:57:04;;;;;;;1.23;1.10;;;;;;;35.99;27.84;99568.25;12223952;19;20015;-83
2022/06/26 14:01:07;;;;;;;3.17;1.30;;;;;;;35.11;28.73;99563.03;12187791;19;20042;-84
2022/06/26 14:05:12;;;;;;;2.97;2.35;;;;;;;34.44;29.83;99565.91;12206473;19;20017;-84
2022/06/26 14:09:14;;;;;;;2.85;1.25;;;;;;;35.09;29.69;99563.44;12206862;19;20391;-80
2022/06/26 14:13:15;;;;;;;2.70;1.80;;;;;;;36.19;27.81;99563.50;12189953;19;20023;-82
2022/06/26 14:17:18;;;;;;;2.38;1.40;;;;;;;36.40;27.77;99552.97;12197863;19;20369;-83
2022/06/26 14:21:19;;;;;;;1.30;1.05;;;;;;;36.95;27.23;99540.25;12203517;19;20006;-82
2022/06/26 14:29:41;;;;;;;1.25;1.00;;;;;;;34.58;29.07;99529.91;12202028;19;20439;-81
2022/06/26 14:33:44;;;;;;;1.40;1.20;;;;;;;33.77;30.18;99529.91;12181301;19;20002;-82
2022/06/26 14:37:45;;;;;;;2.17;1.17;;;;;;;33.56;30.86;99527.94;12206524;19;20018;-82
2022/06/26 14:41:47;;;;;;;;;;;;;;;33.36;31.30;99527.53;12195546;19;20487;-81
2022/06/26 14:45:49;;;;;;;2.03;1.20;;;;;;;32.87;30.61;99514.91;12181663;19;20034;-81
2022/06/26 14:49:51;;;;;;;1.27;1.00;;;;;;;32.07;31.81;99515.22;12208005;19;20010;-81
2022/06/26 14:53:52;;;;;;;2.05;1.08;;;;;;;31.26;32.72;99509.50;12208372;19;20023;-81
2022/06/26 14:57:56;;;;;;;3.15;1.15;;;;;;;30.67;33.60;99505.78;12178818;19;20013;-81
2022/06/26 15:01:57;;;;;;;1.33;1.02;;;;;;;30.34;34.19;99489.63;12206439;19;20135;-82
2022/06/26 15:05:59;;;;;;;1.65;0.82;;;;;;;30.30;34.55;99494.47;12203117;19;20019;-80
2022/06/26 15:10:02;;;;;;;5.47;1.00;;;;;;;30.30;34.13;99492.44;12182710;19;20014;-81
2022/06/26 15:14:04;;;;;;;1.63;0.98;;;;;;;30.53;34.16;99488.59;12201538;19;20033;-81
2022/06/26 15:18:06;;;;;;;1.25;0.90;;;;;;;30.86;34.06;99479.94;12192751;19;20007;-81
2022/06/26 15:22:07;;;;;;;1.90;1.02;;;;;;;31.23;33.66;99475.31;12181830;19;20075;-81
2022/06/26 15:26:09;;;;;;;2.30;1.00;;;;;;;31.21;33.32;99472.06;12202210;19;20085;-82
2022/06/26 15:30:11;;;;;;;1.48;1.17;;;;;;;31.14;34.32;99469.97;12197335;19;20361;-79
2022/06/26 15:34:13;;;;;;;1.25;0.95;;;;;;;31.00;34.28;99467.88;12187186;19;20011;-79
2022/06/26 15:38:14;;;;;;;1.15;0.95;;;;;;;30.84;34.75;99467.34;12203176;19;20017;-80
2022/06/26 15:42:17;;;;;;;3.45;1.00;;;;;;;30.70;34.62;99465.19;12210447;19;20371;-79
2022/06/26 15:46:18;;;;;;;1.20;1.00;;;;;;;30.75;34.95;99466.81;12171612;19;20050;-80
2022/06/26 15:50:20;;;;;;;1.15;0.90;;;;;;;30.84;35.26;99464.50;12191417;19;20024;-79
2022/06/26 15:54:28;;;;;;;2.80;0.98;;;;;;;30.66;34.92;99461.47;12212216;19;20074;-80
2022/06/26 15:58:30;;;;;;;1.17;0.88;;;;;;;30.53;35.54;99455.28;12186241;19;20010;-80
2022/06/26 16:02:32;;;;;;;2.67;1.40;;;;;;;30.24;36.38;99464.78;12210756;19;20002;-79
2022/06/26 16:06:34;;;;;;;1.83;1.30;;;;;;;30.02;36.93;99461.69;12187291;19;20010;-81
2022/06/26 16:10:36;;;;;;;2.25;1.42;;;;;;;29.84;37.58;99467.16;12213771;19;20027;-83
2022/06/26 16:14:41;;;;;;;1.90;1.25;;;;;;;29.47;39.03;99475.59;12215427;19;20421;-82
2022/06/26 16:18:44;;;;;;;2.10;1.38;;;;;;;29.07;40.32;99480.72;12191950;19;20599;-83
2022/06/26 16:27:13;;;;;;;2.55;1.45;;;;;;;28.73;42.25;99476.91;12215777;19;20003;-84
2022/06/26 16:31:18;;;;;;;4.00;1.30;;;;;;;28.68;42.20;99470.78;12189066;19;20054;-83
2022/06/26 16:35:22;;;;;;;3.95;1.50;;;;;;;28.78;41.86;99470.13;12220477;19;20014;-83
2022/06/26 16:39:24;;;;;;;2.95;1.45;;;;;;;28.84;43.25;99474.28;12222603;19;20010;-84
2022/06/26 16:43:29;;;;;;;3.72;1.60;;;;;;;28.87;43.30;99465.00;12197838;19;20381;-83
2022/06/26 16:47:36;;;;;;;2.60;1.40;;;;;;;28.75;43.88;99466.03;12216057;19;20014;-83
2022/06/26 16:51:43;;;;;;;6.43;1.80;;;;;;;28.55;44.67;99453.94;12215169;19;20011;-88
2022/06/26 16:55:45;;;;;;;1.95;1.60;;;;;;;28.13;45.10;99448.34;12217435;19;20014;-83
2022/06/26 16:59:47;;;;;;;2.88;1.67;;;;;;;27.87;45.54;99444.25;12222323;19;20363;-84
2022/06/26 17:03:49;;;;;;;2.97;1.67;;;;;;;27.78;46.31;99434.28;12189370;19;20018;-82
2022/06/26 17:07:51;;;;;;;1.83;1.40;;;;;;;27.58;47.07;99425.84;12220478;19;20078;-85
2022/06/26 17:11:52;;;;;;;3.05;1.80;;;;;;;27.46;47.51;99423.97;12218906;19;20059;-83
2022/06/26 17:16:00;;;;;;;3.13;1.90;;;;;;;27.35;47.69;99422.13;12187544;19;20043;-84
2022/06/26 17:20:03;;;;;;;4.32;1.67;;;;;;;27.32;47.79;99428.53;12211230;19;20027;-83
2022/06/26 17:24:05;;;;;;;2.08;1.63;;;;;;;27.33;48.15;99430.97;12205374;19;20487;-84
2022/06/26 17:28:07;;;;;;;;;;;;;;;27.33;48.04;99424.50;12188149;19;20582;-82
2022/06/26 17:32:09;;;;;;;4.53;1.70;;;;;;;27.14;48.50;99423.28;12210456;19;20037;-83
2022/06/26 17:36:11;;;;;;;2.83;1.98;;;;;;;26.99;48.54;99415.66;12248529;19;20019;-82
2022/06/26 17:40:12;;;;;;;4.53;1.70;;;;;;;27.03;48.54;99423.03;12201750;19;20413;-82
2022/06/26 17:44:14;;;;;;;3.23;2.07;;;;;;;27.19;48.23;99410.88;12219618;19;20014;-84
2022/06/26 17:48:16;;;;;;;5.05;1.92;;;;;;;27.30;48.81;99408.28;12214320;19;20276;-84
2022/06/26 17:52:18;;;;;;;2.97;1.95;;;;;;;27.45;48.52;99401.72;12179019;19;20074;-84
2022/06/26 17:56:21;;;;;;;3.40;1.80;;;;;;;27.59;48.62;99404.00;12206024;19;20014;-83
2022/06/26 18:00:24;;;;;;;4.40;2.08;;;;;;;27.77;48.69;99408.00;12204999;19;20003;-83
2022/06/26 18:04:26;;;;;;;4.00;1.80;;;;;;;27.82;48.27;99402.06;12177933;19;20017;-82
2022/06/26 18:08:28;;;;;;;2.53;1.73;;;;;;;27.77;48.27;99399.50;12213433;19;20460;-82
2022/06/26 18:12:30;;;;;;;3.25;1.50;;;;;;;27.64;48.79;99415.03;12198999;19;20272;-83
2022/06/26 18:16:50;;;;;;;3.58;1.35;;;;;;;27.54;48.86;99402.28;12184559;19;20011;-85
2022/06/26 18:41:43;;;;;;;1.50;1.20;;;;;;;26.55;50.41;99393.25;12203296;19;20030;-82
2022/06/26 18:45:44;;;;;;;;;;;;;;;26.34;51.28;99402.81;12187740;19;20435;-82
2022/06/26 18:49:46;;;;;;;3.67;1.60;;;;;;;26.18;51.60;99404.03;12206134;19;19925;-82
2022/06/26 18:53:48;;;;;;;3.30;1.60;;;;;;;25.95;52.04;99406.66;12198847;19;20482;-82
2022/06/26 18:57:50;;;;;;;2.87;1.60;;;;;;;25.76;52.43;99402.50;12188338;19;20028;-81
2022/06/26 19:01:51;;;;;;;4.23;2.27;;;;;;;25.59;53.52;99394.38;12203590;19;20613;-82
2022/06/26 19:05:53;;;;;;;4.13;1.70;;;;;;;25.38;54.19;99386.94;12204917;19;20026;-82
2022/06/26 19:10:09;;;;;;;2.42;1.83;;;;;;;25.21;54.23;99384.44;12183268;19;20059;-80
2022/06/26 19:18:31;;;;;;;2.60;1.85;;;;;;;24.81;56.60;99392.84;12208933;19;20018;-82
2022/06/26 19:22:35;;;;;;;2.33;1.52;;;;;;;24.64;57.17;99394.75;12188650;19;20913;-82
2022/06/26 19:26:40;;;;;;;3.08;1.80;;;;;;;24.47;58.36;99395.00;12214998;19;20036;-82
2022/06/26 19:30:42;;;;;;;3.03;2.35;;;;;;;24.27;58.94;99396.72;12184073;19;20460;-81
2022/06/26 19:34:46;;;;;;;3.60;2.03;;;;;;;24.05;60.20;99387.56;12210420;19;20491;-81
2022/06/26 19:38:47;;;;;;;3.25;2.20;;;;;;;23.83;61.21;99388.84;12229484;19;20090;-82
2022/06/26 19:42:49;;;;;;;3.93;2.10;;;;;;;23.69;61.85;99387.50;12198577;19;20066;-82
2022/06/26 19:46:51;;;;;;;2.85;2.13;;;;;;;23.56;62.60;99384.66;12210611;19;20007;-81